createdAt,value
2018-01-19T00:01:34.358Z,2.08
2018-01-19T00:04:01.603Z,2.03
2018-01-19T00:06:27.566Z,2.30
2018-01-19T00:08:56.596Z,2.20
2018-01-19T00:11:22.562Z,1.95
2018-01-19T00:13:50.368Z,1.70
2018-01-19T00:16:16.336Z,2.42
2018-01-19T00:18:46.194Z,1.63
2018-01-19T00:21:12.308Z,2.03
2018-01-19T00:23:38.233Z,2.50
2018-01-19T00:26:04.163Z,1.40
2018-01-19T00:28:30.113Z,1.90
2018-01-19T00:30:57.104Z,1.77
2018-01-19T00:33:23.045Z,1.40
2018-01-19T00:35:52.236Z,2.20
2018-01-19T00:38:18.207Z,1.98
2018-01-19T00:40:47.174Z,1.60
2018-01-19T00:43:13.112Z,2.10
2018-01-19T00:45:42.636Z,1.93
2018-01-19T00:48:08.620Z,1.62
2018-01-19T00:50:37.937Z,1.70
2018-01-19T00:53:03.873Z,2.20
2018-01-19T00:55:30.842Z,1.53
2018-01-19T00:57:56.827Z,1.45
2018-01-19T01:00:22.772Z,1.85
2018-01-19T01:02:48.753Z,1.40
2018-01-19T01:05:14.689Z,1.92
2018-01-19T01:07:42.598Z,1.53
2018-01-19T01:10:08.597Z,1.58
2018-01-19T01:12:37.757Z,0.88
2018-01-19T01:15:03.725Z,1.33
2018-01-19T01:17:31.584Z,1.10
2018-01-19T01:19:57.526Z,1.23
2018-01-19T01:22:26.324Z,1.30
2018-01-19T01:24:52.287Z,0.90
2018-01-19T01:27:20.964Z,1.10
2018-01-19T01:29:46.890Z,1.12
2018-01-19T01:32:16.071Z,0.80
2018-01-19T01:34:42.084Z,0.90
2018-01-19T01:37:08.046Z,0.70
2018-01-19T01:39:33.993Z,0.70
2018-01-19T01:41:59.999Z,1.23
2018-01-19T01:44:27.945Z,0.70
2018-01-19T01:46:53.937Z,0.60
2018-01-19T01:49:22.947Z,0.70
2018-01-19T01:51:48.921Z,0.57
2018-01-19T01:54:18.609Z,0.60
2018-01-19T01:56:44.554Z,0.80
2018-01-19T01:59:13.687Z,0.60
2018-01-19T02:01:39.631Z,0.55
2018-01-19T02:04:06.884Z,0.70
2018-01-19T02:06:32.863Z,0.70
2018-01-19T02:09:01.824Z,0.65
2018-01-19T02:11:27.781Z,0.50
2018-01-19T02:13:53.715Z,0.63
2018-01-19T02:16:19.672Z,0.80
2018-01-19T02:18:45.657Z,0.60
2018-01-19T02:21:14.637Z,0.70
2018-01-19T02:23:40.635Z,0.50
2018-01-19T02:26:07.729Z,0.60
2018-01-19T02:28:33.667Z,0.60
2018-01-19T02:31:03.628Z,0.97
2018-01-19T02:33:29.586Z,1.00
2018-01-19T02:35:58.766Z,0.60
2018-01-19T02:38:24.723Z,0.73
2018-01-19T02:40:52.486Z,0.80
2018-01-19T02:43:18.451Z,0.70
2018-01-19T02:45:47.509Z,0.90
2018-01-19T02:48:13.449Z,1.20
2018-01-19T02:50:39.406Z,1.90
2018-01-19T02:53:05.441Z,0.70
2018-01-19T02:55:31.432Z,0.70
2018-01-19T02:57:58.921Z,0.75
2018-01-19T03:00:24.876Z,1.35
2018-01-19T03:02:52.985Z,2.40
2018-01-19T03:05:19.018Z,1.08
2018-01-19T03:07:48.005Z,1.08
2018-01-19T03:10:13.945Z,0.70
2018-01-19T03:12:43.143Z,0.73
2018-01-19T03:15:09.121Z,0.90
2018-01-19T03:17:36.867Z,0.90
2018-01-19T03:20:02.875Z,1.10
2018-01-19T03:22:32.242Z,1.00
2018-01-19T03:24:58.249Z,2.47
2018-01-19T03:27:24.199Z,1.00
2018-01-19T03:29:50.162Z,0.73
2018-01-19T03:32:16.138Z,0.80
2018-01-19T03:34:43.880Z,0.82
2018-01-19T03:37:09.875Z,1.02
2018-01-19T03:39:39.292Z,0.90
2018-01-19T03:42:05.258Z,0.80
2018-01-19T03:44:33.166Z,0.80
2018-01-19T03:46:59.130Z,1.00
2018-01-19T03:49:28.557Z,0.97
2018-01-19T03:51:54.488Z,0.80
2018-01-19T03:54:22.738Z,1.13
2018-01-19T03:56:48.690Z,0.95
2018-01-19T03:59:17.407Z,0.90
2018-01-19T04:01:43.404Z,1.20
2018-01-19T04:04:09.348Z,1.40
2018-01-19T04:06:35.329Z,0.80
2018-01-19T04:09:01.305Z,1.30
2018-01-19T04:11:29.029Z,1.00
2018-01-19T04:13:55.038Z,1.90
2018-01-19T04:16:24.141Z,1.30
2018-01-19T04:18:50.108Z,1.12
2018-01-19T04:21:18.481Z,2.90
2018-01-19T04:23:44.438Z,1.98
2018-01-19T04:26:13.934Z,0.90
2018-01-19T04:28:39.915Z,1.02
2018-01-19T04:31:07.610Z,1.62
2018-01-19T04:33:33.611Z,1.40
2018-01-19T04:36:03.110Z,1.85
2018-01-19T04:38:29.122Z,1.60
2018-01-19T04:40:55.098Z,1.80
2018-01-19T04:43:21.038Z,1.20
2018-01-19T04:45:47.013Z,1.07
2018-01-19T04:48:14.377Z,0.80
2018-01-19T04:50:40.336Z,0.90
2018-01-19T04:53:09.561Z,0.90
2018-01-19T04:55:35.537Z,0.90
2018-01-19T04:58:03.659Z,0.90
2018-01-19T05:00:29.706Z,1.08
2018-01-19T05:02:58.980Z,0.95
2018-01-19T05:05:24.974Z,0.90
2018-01-19T05:07:53.955Z,0.93
2018-01-19T05:10:19.916Z,0.80
2018-01-19T05:12:49.133Z,0.90
2018-01-19T05:15:15.056Z,1.02
2018-01-19T05:17:41.017Z,0.90
2018-01-19T05:20:07.006Z,1.00
2018-01-19T05:25:23.814Z,1.00
2018-01-19T05:27:49.776Z,0.80
2018-01-19T05:30:15.712Z,1.20
2018-01-19T05:32:41.721Z,1.13
2018-01-19T05:35:07.697Z,1.20
2018-01-19T05:37:33.676Z,1.10
2018-01-19T05:39:59.633Z,1.30
2018-01-19T05:42:25.615Z,0.83
2018-01-19T05:44:51.619Z,1.35
2018-01-19T05:47:17.655Z,1.10
2018-01-19T05:49:43.689Z,0.93
2018-01-19T05:52:09.653Z,0.70
2018-01-19T05:54:35.644Z,0.87
2018-01-19T05:57:01.651Z,0.95
2018-01-19T05:59:27.692Z,0.50
2018-01-19T06:01:53.704Z,0.80
2018-01-19T06:04:19.680Z,2.60
2018-01-19T06:06:45.657Z,1.20
2018-01-19T06:09:11.645Z,0.90
2018-01-19T06:11:37.619Z,1.33
2018-01-19T06:14:03.623Z,1.27
2018-01-19T06:16:29.599Z,1.20
2018-01-19T06:18:55.592Z,0.70
2018-01-19T06:21:24.616Z,0.70
2018-01-19T06:23:50.611Z,0.70
2018-01-19T06:26:18.365Z,1.45
2018-01-19T06:28:44.355Z,1.00
2018-01-19T06:31:10.308Z,0.80
2018-01-19T06:33:36.229Z,1.00
2018-01-19T06:36:02.190Z,1.20
2018-01-19T06:38:30.164Z,0.87
2018-01-19T06:40:56.090Z,1.58
2018-01-19T06:43:25.900Z,0.90
2018-01-19T06:45:51.871Z,1.27
2018-01-19T06:48:20.209Z,1.37
2018-01-19T06:50:46.207Z,1.35
2018-01-19T06:53:15.985Z,0.80
2018-01-19T06:55:41.962Z,1.60
2018-01-19T06:58:11.012Z,1.20
2018-01-19T07:00:37.057Z,1.50
2018-01-19T07:03:04.280Z,1.20
2018-01-19T07:05:30.252Z,0.90
2018-01-19T07:07:56.256Z,1.30
2018-01-19T07:10:22.219Z,1.05
2018-01-19T07:12:48.182Z,1.57
2018-01-19T07:15:15.962Z,1.23
2018-01-19T07:17:41.957Z,1.52
2018-01-19T07:20:11.920Z,1.10
2018-01-19T07:22:37.876Z,1.10
2018-01-19T07:25:05.147Z,0.60
2018-01-19T07:27:31.095Z,0.60
2018-01-19T07:30:00.202Z,1.10
2018-01-19T07:32:26.195Z,1.42
2018-01-19T07:34:55.319Z,1.20
2018-01-19T07:37:21.272Z,1.05
2018-01-19T07:39:50.269Z,1.00
2018-01-19T07:42:16.241Z,1.15
2018-01-19T07:44:42.202Z,1.05
2018-01-19T07:47:08.163Z,0.90
2018-01-19T07:49:34.166Z,1.27
2018-01-19T07:52:01.284Z,1.80
2018-01-19T07:54:27.254Z,1.60
2018-01-19T07:56:56.848Z,1.12
2018-01-19T07:59:22.832Z,1.00
2018-01-19T08:01:52.204Z,0.95
2018-01-19T08:04:18.192Z,0.90
2018-01-19T08:06:45.152Z,1.12
2018-01-19T08:09:11.158Z,1.00
2018-01-19T08:11:40.452Z,1.25
2018-01-19T08:14:06.402Z,0.80
2018-01-19T08:16:35.746Z,2.30
2018-01-19T08:19:01.752Z,2.30
2018-01-19T08:21:27.713Z,1.60
2018-01-19T08:23:53.684Z,1.53
2018-01-19T08:26:19.676Z,1.50
2018-01-19T08:28:46.307Z,1.80
2018-01-19T08:31:12.258Z,1.98
2018-01-19T08:33:41.758Z,2.53
2018-01-19T08:36:07.701Z,1.37
2018-01-19T08:38:36.536Z,1.40
2018-01-19T08:41:02.461Z,1.70
2018-01-19T08:43:30.230Z,0.93
2018-01-19T08:45:56.186Z,1.25
2018-01-19T08:48:25.686Z,1.93
2018-01-19T08:50:51.692Z,1.70
2018-01-19T08:53:21.088Z,1.60
2018-01-19T08:55:47.054Z,1.55
2018-01-19T08:58:13.031Z,1.80
2018-01-19T09:00:38.988Z,1.25
2018-01-19T09:03:04.951Z,1.80
2018-01-19T09:05:31.435Z,1.97
2018-01-19T09:07:57.411Z,1.80
2018-01-19T09:10:26.226Z,1.73
2018-01-19T09:12:52.175Z,1.20
2018-01-19T09:15:21.684Z,1.77
2018-01-19T09:17:47.613Z,1.48
2018-01-19T09:20:15.934Z,0.80
2018-01-19T09:22:41.991Z,1.02
2018-01-19T09:25:11.110Z,0.80
2018-01-19T09:27:37.061Z,1.50
2018-01-19T09:30:06.184Z,1.73
2018-01-19T09:32:32.126Z,1.20
2018-01-19T09:34:58.051Z,0.80
2018-01-19T09:37:24.032Z,1.20
2018-01-19T09:39:50.042Z,0.87
2018-01-19T09:42:17.392Z,2.10
2018-01-19T09:44:43.326Z,0.90
2018-01-19T09:47:14.336Z,0.87
2018-01-19T09:49:40.345Z,1.37
2018-01-19T09:52:06.281Z,1.17
2018-01-19T09:54:32.264Z,1.30
2018-01-19T09:57:00.687Z,1.40
2018-01-19T09:59:26.665Z,0.90
2018-01-19T10:01:56.190Z,2.33
2018-01-19T10:04:22.141Z,1.08
2018-01-19T10:06:51.320Z,1.37
2018-01-19T10:09:17.290Z,0.90
2018-01-19T10:11:43.289Z,1.30
2018-01-19T10:14:09.270Z,1.08
2018-01-19T10:16:35.243Z,1.10
2018-01-19T10:19:02.134Z,2.13
2018-01-19T10:21:28.102Z,1.73
2018-01-19T10:23:57.620Z,1.00
2018-01-19T10:26:23.583Z,1.30
2018-01-19T10:28:51.260Z,0.90
2018-01-19T10:31:17.186Z,1.33
2018-01-19T10:33:46.166Z,1.10
2018-01-19T10:36:12.132Z,1.35
2018-01-19T10:38:44.975Z,1.20
2018-01-19T10:41:10.906Z,1.23
2018-01-19T10:43:36.893Z,1.30
2018-01-19T10:46:02.887Z,1.33
2018-01-19T10:48:28.866Z,1.50
2018-01-19T10:50:54.846Z,1.37
2018-01-19T10:53:20.788Z,1.10
2018-01-19T10:55:47.412Z,1.30
2018-01-19T10:58:13.379Z,0.75
2018-01-19T11:00:42.684Z,1.63
2018-01-19T11:03:08.629Z,1.10
2018-01-19T11:05:37.876Z,1.10
2018-01-19T11:08:03.839Z,0.90
2018-01-19T11:10:32.794Z,2.07
2018-01-19T11:12:58.712Z,1.20
2018-01-19T11:15:26.611Z,1.07
2018-01-19T11:17:52.552Z,1.12
2018-01-19T11:20:21.714Z,0.90
2018-01-19T11:22:47.696Z,0.90
2018-01-19T11:25:13.703Z,1.98
2018-01-19T11:27:39.637Z,1.20
2018-01-19T11:30:05.612Z,0.90
2018-01-19T11:32:33.504Z,1.13
2018-01-19T11:34:59.458Z,0.95
2018-01-19T11:37:29.162Z,1.10
2018-01-19T11:39:55.114Z,1.02
2018-01-19T11:42:22.962Z,1.03
2018-01-19T11:44:48.924Z,0.85
2018-01-19T11:47:19.189Z,1.17
2018-01-19T11:49:45.315Z,0.70
2018-01-19T11:52:11.551Z,1.05
2018-01-19T11:54:37.475Z,1.20
2018-01-19T11:57:07.243Z,1.70
2018-01-19T11:59:33.239Z,1.45
2018-01-19T12:01:59.227Z,0.85
2018-01-19T12:04:25.195Z,0.85
2018-01-19T12:06:51.169Z,1.00
2018-01-19T12:09:18.609Z,1.23
2018-01-19T12:11:44.708Z,1.33
2018-01-19T12:14:13.301Z,1.27
2018-01-19T12:16:39.271Z,0.90
2018-01-19T12:19:08.937Z,0.90
2018-01-19T12:21:34.952Z,0.80
2018-01-19T12:24:04.050Z,0.80
2018-01-19T12:26:30.027Z,1.00
2018-01-19T12:28:57.367Z,0.65
2018-01-19T12:31:23.342Z,0.80
2018-01-19T12:33:52.484Z,0.85
2018-01-19T12:36:18.423Z,0.80
2018-01-19T12:38:44.356Z,1.07
2018-01-19T12:41:10.310Z,1.10
2018-01-19T12:43:36.286Z,1.33
2018-01-19T12:46:03.591Z,0.80
2018-01-19T12:48:29.546Z,0.95
2018-01-19T12:50:58.129Z,0.80
2018-01-19T12:53:24.119Z,1.37
2018-01-19T12:55:53.337Z,0.97
2018-01-19T12:58:19.323Z,1.17
2018-01-19T13:00:48.509Z,3.50
2018-01-19T13:03:14.464Z,0.73
2018-01-19T13:05:43.969Z,0.90
2018-01-19T13:08:09.944Z,1.00
2018-01-19T13:10:36.891Z,0.87
2018-01-19T13:13:02.864Z,1.20
2018-01-19T13:15:28.801Z,1.43
2018-01-19T13:17:54.975Z,1.33
2018-01-19T13:20:20.928Z,0.90
2018-01-19T13:22:48.922Z,0.80
2018-01-19T13:25:14.904Z,1.50
2018-01-19T13:27:43.909Z,1.33
2018-01-19T13:30:09.874Z,1.12
2018-01-19T13:32:38.070Z,1.00
2018-01-19T13:35:04.011Z,0.70
2018-01-19T13:37:33.608Z,0.80
2018-01-19T13:39:59.599Z,1.23
2018-01-19T13:42:27.236Z,1.00
2018-01-19T13:44:53.195Z,0.98
2018-01-19T13:47:24.113Z,1.20
2018-01-19T13:49:50.070Z,1.05
2018-01-19T13:52:16.054Z,1.10
2018-01-19T13:54:42.073Z,1.08
2018-01-19T13:57:08.005Z,1.23
2018-01-19T13:59:33.958Z,0.90
2018-01-19T14:01:59.984Z,1.20
2018-01-19T14:04:29.965Z,0.80
2018-01-19T14:06:55.901Z,0.90
2018-01-19T14:09:23.625Z,1.10
2018-01-19T14:11:49.604Z,0.98
2018-01-19T14:14:18.725Z,1.08
2018-01-19T14:16:44.690Z,6.62
2018-01-19T14:19:14.109Z,1.40
2018-01-19T14:21:40.052Z,1.23
2018-01-19T14:24:09.116Z,1.50
2018-01-19T14:26:35.039Z,1.35
2018-01-19T14:29:01.061Z,1.80
2018-01-19T14:31:27.119Z,2.25
2018-01-19T14:33:53.084Z,1.00
2018-01-19T14:36:19.585Z,1.23
2018-01-19T14:38:45.512Z,2.25
2018-01-19T14:41:15.065Z,1.27
2018-01-19T14:43:41.243Z,1.83
2018-01-19T14:46:09.310Z,1.60
2018-01-19T14:48:35.292Z,1.02
2018-01-19T14:51:04.302Z,0.85
2018-01-19T14:53:30.299Z,0.70
2018-01-19T14:55:58.831Z,0.80
2018-01-19T14:58:24.819Z,1.40
2018-01-19T15:00:52.685Z,0.75
2018-01-19T15:03:18.593Z,1.00
2018-01-19T15:05:44.564Z,1.17
2018-01-19T15:08:10.492Z,1.10
2018-01-19T15:10:36.412Z,1.07
2018-01-19T15:13:06.061Z,1.57
2018-01-19T15:15:32.004Z,2.95
2018-01-19T15:18:01.095Z,1.37
2018-01-19T15:20:27.074Z,1.20
2018-01-19T15:22:54.482Z,2.35
2018-01-19T15:25:20.432Z,2.42
2018-01-19T15:27:48.536Z,2.00
2018-01-19T15:30:14.494Z,1.58
2018-01-19T15:32:44.938Z,1.47
2018-01-19T15:35:11.072Z,1.98
2018-01-19T15:37:38.536Z,1.90
2018-01-19T15:40:04.570Z,2.00
2018-01-19T15:42:30.520Z,2.10
2018-01-19T15:44:56.533Z,3.97
2018-01-19T15:47:23.192Z,2.50
2018-01-19T15:49:50.280Z,2.17
2018-01-19T15:52:16.238Z,2.20
2018-01-19T15:54:45.523Z,1.27
2018-01-19T15:57:11.529Z,1.70
2018-01-19T15:59:39.346Z,1.50
2018-01-19T16:02:05.276Z,2.50
2018-01-19T16:04:33.840Z,1.57
2018-01-19T16:09:51.962Z,1.75
2018-01-19T16:12:17.960Z,19.67
2018-01-19T16:14:43.926Z,1.98
2018-01-19T16:17:09.979Z,1.33
2018-01-19T16:19:35.952Z,1.00
2018-01-19T16:22:01.959Z,1.67
2018-01-19T16:24:27.968Z,2.10
2018-01-19T16:26:53.942Z,1.70
2018-01-19T16:29:19.937Z,2.17
2018-01-19T16:31:45.934Z,2.40
2018-01-19T16:34:11.965Z,2.60
2018-01-19T16:36:37.964Z,2.10
2018-01-19T16:39:03.946Z,2.80
2018-01-19T16:41:29.932Z,3.60
2018-01-19T16:43:55.977Z,1.90
2018-01-19T16:46:21.982Z,1.50
2018-01-19T16:48:47.974Z,2.03
2018-01-19T16:51:13.980Z,1.80
2018-01-19T16:53:39.944Z,1.90
2018-01-19T16:56:05.949Z,2.65
2018-01-19T16:58:31.952Z,2.53
2018-01-19T17:00:57.996Z,1.50
2018-01-19T17:03:24.020Z,1.33
2018-01-19T17:05:49.989Z,2.67
2018-01-19T17:08:15.984Z,1.65
2018-01-19T17:10:41.964Z,1.40
2018-01-19T17:13:10.564Z,1.10
2018-01-19T17:15:36.623Z,1.80
2018-01-19T17:18:04.406Z,2.10
2018-01-19T17:20:30.445Z,3.42
2018-01-19T17:23:00.000Z,1.87
2018-01-19T17:25:25.980Z,1.20
2018-01-19T17:27:55.556Z,1.17
2018-01-19T17:30:21.571Z,2.10
2018-01-19T17:32:47.531Z,1.90
2018-01-19T17:35:13.559Z,1.23
2018-01-19T17:37:39.510Z,1.83
2018-01-19T17:40:06.032Z,2.40
2018-01-19T17:42:32.016Z,2.70
2018-01-19T17:45:01.140Z,2.53
2018-01-19T17:47:32.621Z,2.05
2018-01-19T17:49:58.650Z,2.65
2018-01-19T17:52:24.655Z,1.65
2018-01-19T17:54:50.743Z,2.08
2018-01-19T17:57:16.798Z,1.65
2018-01-19T17:59:44.592Z,2.40
2018-01-19T18:07:49.482Z,2.10
2018-01-19T18:10:17.118Z,2.45
2018-01-19T18:12:43.057Z,2.12
2018-01-19T18:15:09.030Z,2.67
2018-01-19T18:17:34.966Z,2.85
2018-01-19T18:20:00.947Z,2.33
2018-01-19T18:22:26.926Z,2.25
2018-01-19T18:24:52.934Z,2.85
2018-01-19T18:27:18.906Z,3.20
2018-01-19T18:29:44.880Z,4.10
2018-01-19T18:32:11.612Z,3.50
2018-01-19T18:34:37.578Z,3.17
2018-01-19T18:37:03.576Z,2.77
2018-01-19T18:39:29.539Z,3.47
2018-01-19T18:41:55.518Z,3.33
2018-01-19T18:44:21.500Z,3.20
2018-01-19T18:46:47.452Z,3.70
2018-01-19T18:49:13.430Z,4.80
2018-01-19T18:51:39.392Z,7.00
2018-01-19T18:54:05.359Z,5.00
2018-01-19T18:56:31.339Z,4.57
2018-01-19T18:58:57.308Z,3.62
2018-01-19T19:01:23.280Z,4.67
2018-01-19T19:03:49.209Z,4.50
2018-01-19T19:06:15.176Z,4.70
2018-01-19T19:08:41.196Z,5.75
2018-01-19T19:11:07.165Z,4.97
2018-01-19T19:13:33.139Z,6.87
2018-01-19T19:15:59.084Z,10.57
2018-01-19T19:18:25.045Z,11.90
2018-01-19T19:20:51.004Z,13.00
2018-01-19T19:23:16.992Z,14.03
2018-01-19T19:25:42.898Z,10.27
2018-01-19T19:28:08.931Z,10.30
2018-01-19T19:30:34.866Z,8.93
2018-01-19T19:33:00.860Z,10.50
2018-01-19T19:35:26.856Z,11.30
2018-01-19T19:37:52.827Z,10.82
2018-01-19T19:40:18.772Z,7.73
2018-01-19T19:42:44.740Z,4.60
2018-01-19T19:45:10.716Z,6.03
2018-01-19T19:47:36.656Z,5.65
2018-01-19T19:50:02.660Z,5.80
2018-01-19T19:52:28.641Z,5.40
2018-01-19T19:54:55.709Z,5.95
2018-01-19T19:57:21.679Z,9.18
2018-01-19T19:59:47.628Z,7.97
2018-01-19T20:02:13.632Z,4.33
2018-01-19T20:04:39.559Z,4.65
2018-01-19T20:07:06.929Z,4.70
2018-01-19T20:09:32.933Z,5.35
2018-01-19T20:12:02.266Z,5.37
2018-01-19T20:14:28.233Z,4.57
2018-01-19T20:16:57.633Z,4.13
2018-01-19T20:19:23.680Z,4.55
2018-01-19T20:21:52.669Z,5.68
2018-01-19T20:24:18.605Z,5.95
2018-01-19T20:26:45.785Z,7.03
2018-01-19T20:29:11.748Z,5.97
2018-01-19T20:31:41.513Z,8.57
2018-01-19T20:34:07.493Z,8.32
2018-01-19T20:36:33.497Z,9.15
2018-01-19T20:38:59.504Z,6.00
2018-01-19T20:41:25.506Z,5.62
2018-01-19T20:43:52.585Z,4.25
2018-01-19T20:46:18.496Z,3.03
2018-01-19T20:48:47.857Z,2.50
2018-01-19T20:51:13.787Z,3.10
2018-01-19T20:53:41.499Z,3.83
2018-01-19T20:56:07.492Z,2.87
2018-01-19T20:58:36.553Z,2.60
2018-01-19T21:01:02.560Z,2.05
2018-01-19T21:03:32.393Z,4.43
2018-01-19T21:05:58.365Z,4.05
2018-01-19T21:08:27.394Z,2.60
2018-01-19T21:10:53.327Z,2.30
2018-01-19T21:13:19.324Z,2.70
2018-01-19T21:15:45.265Z,2.30
2018-01-19T21:18:11.216Z,1.90
2018-01-19T21:20:38.157Z,1.70
2018-01-19T21:23:04.150Z,2.40
2018-01-19T21:25:33.310Z,1.83
2018-01-19T21:27:59.296Z,4.12
2018-01-19T21:30:28.514Z,12.05
2018-01-19T21:32:54.511Z,1.67
2018-01-19T21:35:23.648Z,2.00
2018-01-19T21:37:49.624Z,1.65
2018-01-19T21:40:17.062Z,2.75
2018-01-19T21:42:43.024Z,2.05
2018-01-19T21:45:12.893Z,1.80
2018-01-19T21:47:38.880Z,2.53
2018-01-19T21:50:04.862Z,2.55
2018-01-19T21:52:30.806Z,1.50
2018-01-19T21:54:56.804Z,1.60
2018-01-19T21:57:23.058Z,1.90
2018-01-19T21:59:49.016Z,1.70
2018-01-19T22:02:17.998Z,2.30
2018-01-19T22:04:43.979Z,2.00
2018-01-19T22:07:13.017Z,2.55
2018-01-19T22:09:38.961Z,1.70
2018-01-19T22:12:08.350Z,1.80
2018-01-19T22:14:34.343Z,2.20
2018-01-19T22:17:03.452Z,1.42
2018-01-19T22:19:29.420Z,1.40
2018-01-19T22:21:56.738Z,1.77
2018-01-19T22:24:22.746Z,1.65
2018-01-19T22:26:48.711Z,1.33
2018-01-19T22:29:14.681Z,1.97
2018-01-19T22:31:40.670Z,2.53
2018-01-19T22:34:08.562Z,2.20
2018-01-19T22:36:34.526Z,4.18
2018-01-19T22:39:03.686Z,2.37
2018-01-19T22:41:29.659Z,4.47
2018-01-19T22:43:57.614Z,2.35
2018-01-19T22:46:23.568Z,4.18
2018-01-19T22:48:52.270Z,2.30
2018-01-19T22:51:18.251Z,1.62
2018-01-19T22:53:48.602Z,2.17
2018-01-19T22:56:14.636Z,4.18
2018-01-19T22:58:42.051Z,6.90
2018-01-19T23:01:08.010Z,6.55
2018-01-19T23:03:33.962Z,3.00
2018-01-19T23:05:59.904Z,2.67
2018-01-19T23:08:25.903Z,2.90
2018-01-19T23:10:56.070Z,2.30
2018-01-19T23:13:22.049Z,2.05
2018-01-19T23:15:48.752Z,1.85
2018-01-19T23:18:14.689Z,1.65
2018-01-19T23:20:43.704Z,2.37
2018-01-19T23:23:09.691Z,2.85
2018-01-19T23:25:38.930Z,1.73
2018-01-19T23:28:04.885Z,1.77
2018-01-19T23:30:34.220Z,1.60
2018-01-19T23:33:00.181Z,1.75
2018-01-19T23:35:27.368Z,1.20
2018-01-19T23:37:53.323Z,1.20
2018-01-19T23:40:19.320Z,1.47
2018-01-19T23:42:45.667Z,1.25
2018-01-19T23:45:11.662Z,1.20
2018-01-19T23:47:40.760Z,1.55
2018-01-19T23:50:06.755Z,1.50
2018-01-19T23:52:34.128Z,1.20
2018-01-19T23:55:00.111Z,1.75
2018-01-19T23:57:28.156Z,1.55
2018-01-19T23:59:54.129Z,1.37
